createdAt,value
2023-04-18T00:00:43.286Z,21.67
2023-04-18T00:03:10.722Z,24.65
2023-04-18T00:05:38.540Z,23.15
2023-04-18T00:08:05.872Z,23.38
2023-04-18T00:10:33.217Z,24.20
2023-04-18T00:13:00.458Z,24.58
2023-04-18T00:15:29.177Z,23.10
2023-04-18T00:17:56.983Z,25.17
2023-04-18T00:20:27.318Z,26.73
2023-04-18T00:22:54.966Z,18.38
2023-04-18T00:25:22.342Z,19.65
2023-04-18T00:27:49.554Z,21.05
2023-04-18T00:30:18.182Z,21.63
2023-04-18T00:32:45.434Z,18.95
2023-04-18T00:35:12.761Z,19.17
2023-04-18T00:37:40.014Z,16.73
2023-04-18T00:40:09.153Z,21.48
2023-04-18T00:42:36.381Z,19.85
2023-04-18T00:45:03.687Z,18.02
2023-04-18T00:47:30.826Z,21.80
2023-04-18T00:49:58.086Z,21.52
2023-04-18T00:52:27.250Z,20.33
2023-04-18T00:54:55.380Z,19.23
2023-04-18T00:57:22.806Z,16.70
2023-04-18T00:59:51.040Z,20.50
2023-04-18T01:02:19.329Z,20.20
2023-04-18T01:04:47.147Z,19.35
2023-04-18T01:07:15.103Z,18.27
2023-04-18T01:09:42.577Z,20.20
2023-04-18T01:12:09.945Z,17.88
2023-04-18T01:14:37.019Z,17.63
2023-04-18T01:17:04.487Z,17.98
2023-04-18T01:19:31.769Z,20.10
2023-04-18T01:21:59.565Z,17.58
2023-04-18T01:24:29.811Z,17.58
2023-04-18T01:26:57.354Z,17.98
2023-04-18T01:29:24.546Z,16.55
2023-04-18T01:31:51.664Z,18.45
2023-04-18T01:34:19.190Z,15.68
2023-04-18T01:36:46.831Z,16.77
2023-04-18T01:39:14.576Z,16.08
2023-04-18T01:41:44.893Z,13.13
2023-04-18T01:44:12.294Z,16.20
2023-04-18T01:46:40.825Z,16.73
2023-04-18T01:49:09.867Z,16.83
2023-04-18T01:51:38.851Z,16.08
2023-04-18T01:54:06.097Z,15.48
2023-04-18T01:56:33.386Z,16.17
2023-04-18T01:59:01.724Z,14.48
2023-04-18T02:01:28.898Z,15.40
2023-04-18T02:03:58.249Z,20.13
2023-04-18T02:06:26.218Z,15.45
2023-04-18T02:08:53.729Z,16.42
2023-04-18T02:11:21.109Z,17.52
2023-04-18T02:13:49.018Z,14.98
2023-04-18T02:16:16.347Z,17.48
2023-04-18T02:18:44.414Z,16.77
2023-04-18T02:21:13.527Z,17.00
2023-04-18T02:23:40.718Z,14.82
2023-04-18T02:26:07.822Z,16.83
2023-04-18T02:28:37.121Z,16.67
2023-04-18T02:31:04.641Z,15.50
2023-04-18T02:33:34.552Z,17.15
2023-04-18T02:36:01.927Z,14.73
2023-04-18T02:38:29.153Z,15.35
2023-04-18T02:40:56.344Z,15.63
2023-04-18T02:43:23.576Z,17.67
2023-04-18T02:45:50.974Z,17.27
2023-04-18T02:48:18.202Z,17.58
2023-04-18T02:50:46.276Z,17.08
2023-04-18T02:53:13.526Z,16.65
2023-04-18T02:55:51.769Z,17.83
2023-04-18T02:58:20.167Z,19.17
2023-04-18T03:01:06.097Z,17.73
2023-04-18T03:03:53.612Z,18.63
2023-04-18T03:06:39.934Z,17.88
2023-04-18T03:09:07.343Z,16.17
2023-04-18T03:11:37.405Z,17.52
2023-04-18T03:14:05.793Z,19.42
2023-04-18T03:16:43.217Z,16.23
2023-04-18T03:19:13.770Z,20.38
2023-04-18T03:21:41.010Z,19.60
2023-04-18T03:24:10.226Z,17.45
2023-04-18T03:26:39.325Z,22.98
2023-04-18T03:29:06.730Z,17.33
2023-04-18T03:31:34.177Z,17.02
2023-04-18T03:34:01.372Z,18.20
2023-04-18T03:36:28.825Z,17.38
2023-04-18T03:38:56.277Z,18.30
2023-04-18T03:41:24.675Z,25.52
2023-04-18T03:43:52.776Z,17.88
2023-04-18T03:46:21.861Z,19.80
2023-04-18T03:48:51.799Z,20.35
2023-04-18T03:51:18.969Z,23.17
2023-04-18T03:53:47.146Z,18.90
2023-04-18T03:56:14.520Z,17.65
2023-04-18T03:58:50.650Z,16.45
2023-04-18T04:01:19.327Z,18.88
2023-04-18T04:03:46.810Z,18.00
2023-04-18T04:06:14.905Z,18.25
2023-04-18T04:08:42.083Z,16.50
2023-04-18T04:11:09.393Z,18.90
2023-04-18T04:13:36.684Z,20.77
2023-04-18T04:16:04.277Z,17.33
2023-04-18T04:18:32.090Z,14.65
2023-04-18T04:21:02.290Z,17.65
2023-04-18T04:23:46.230Z,18.92
2023-04-18T04:26:24.045Z,19.30
2023-04-18T04:28:59.021Z,18.30
2023-04-18T04:31:28.959Z,16.13
2023-04-18T04:33:57.316Z,17.15
2023-04-18T04:36:27.226Z,18.25
2023-04-18T04:38:56.485Z,20.45
2023-04-18T04:41:32.424Z,19.35
2023-04-18T04:44:01.742Z,20.70
2023-04-18T04:46:31.891Z,19.15
2023-04-18T04:49:01.173Z,22.05
2023-04-18T04:51:28.329Z,15.98
2023-04-18T04:53:56.201Z,17.70
2023-04-18T04:56:23.983Z,26.30
2023-04-18T04:58:51.610Z,19.10
2023-04-18T05:01:23.387Z,18.17
2023-04-18T05:03:52.819Z,20.30
2023-04-18T05:06:20.939Z,12.65
2023-04-18T05:08:48.624Z,16.58
2023-04-18T05:11:16.071Z,18.42
2023-04-18T05:13:43.324Z,20.98
2023-04-18T05:16:10.855Z,20.33
2023-04-18T05:18:39.353Z,11.88
2023-04-18T05:21:06.595Z,19.90
2023-04-18T05:23:37.603Z,14.43
2023-04-18T05:26:06.123Z,17.92
2023-04-18T05:28:33.655Z,18.73
2023-04-18T05:31:01.499Z,24.08
2023-04-18T05:33:29.665Z,19.95
2023-04-18T05:35:57.504Z,19.10
2023-04-18T05:38:25.224Z,17.00
2023-04-18T05:40:53.051Z,17.15
2023-04-18T05:43:20.369Z,20.35
2023-04-18T05:45:48.066Z,22.35
2023-04-18T05:48:15.539Z,17.98
2023-04-18T05:50:42.636Z,19.95
2023-04-18T05:53:09.981Z,16.52
2023-04-18T05:55:37.355Z,20.40
2023-04-18T05:58:04.453Z,19.80
2023-04-18T06:00:32.073Z,21.02
2023-04-18T06:02:59.579Z,16.15
2023-04-18T06:05:27.265Z,19.15
2023-04-18T06:07:55.130Z,19.02
2023-04-18T06:10:22.391Z,20.15
2023-04-18T06:12:49.713Z,18.08
2023-04-18T06:15:16.921Z,18.13
2023-04-18T06:17:44.573Z,19.63
2023-04-18T06:20:11.820Z,20.00
2023-04-18T06:22:39.164Z,18.25
2023-04-18T06:25:08.902Z,16.98
2023-04-18T06:27:36.712Z,19.17
2023-04-18T06:30:04.310Z,17.85
2023-04-18T06:32:31.562Z,19.10
2023-04-18T06:34:58.705Z,20.63
2023-04-18T06:37:25.929Z,17.15
2023-04-18T06:39:54.531Z,19.90
2023-04-18T06:42:22.529Z,19.00
2023-04-18T06:44:49.884Z,20.42
2023-04-18T06:47:17.108Z,17.05
2023-04-18T06:49:44.378Z,17.63
2023-04-18T06:52:11.601Z,17.25
2023-04-18T06:54:38.805Z,17.85
2023-04-18T06:57:06.227Z,17.75
2023-04-18T06:59:33.572Z,20.65
2023-04-18T07:02:00.833Z,19.95
2023-04-18T07:04:28.099Z,17.13
2023-04-18T07:06:55.539Z,16.23
2023-04-18T07:09:23.007Z,18.63
2023-04-18T07:11:51.750Z,14.68
2023-04-18T07:14:20.049Z,19.95
2023-04-18T07:16:47.284Z,19.58
2023-04-18T07:19:14.510Z,17.08
2023-04-18T07:21:43.734Z,18.33
2023-04-18T07:24:12.500Z,18.65
2023-04-18T07:26:39.929Z,15.25
2023-04-18T07:29:07.105Z,16.10
2023-04-18T07:31:36.237Z,16.45
2023-04-18T07:34:03.735Z,15.50
2023-04-18T07:36:31.515Z,17.15
2023-04-18T07:38:58.695Z,15.82
2023-04-18T07:41:25.980Z,14.93
2023-04-18T07:43:53.344Z,15.98
2023-04-18T07:46:21.677Z,16.10
2023-04-18T07:48:49.892Z,15.10
2023-04-18T07:51:17.222Z,14.23
2023-04-18T07:53:44.426Z,13.88
2023-04-18T07:56:15.347Z,16.48
2023-04-18T07:58:42.586Z,14.02
2023-04-18T08:01:14.210Z,16.65
2023-04-18T08:03:41.965Z,14.52
2023-04-18T08:06:10.525Z,14.27
2023-04-18T08:08:37.598Z,15.45
2023-04-18T08:11:04.661Z,14.13
2023-04-18T08:13:31.881Z,13.02
2023-04-18T08:16:00.000Z,12.30
2023-04-18T08:18:27.244Z,13.32
2023-04-18T08:20:54.449Z,14.27
2023-04-18T08:23:21.591Z,12.23
2023-04-18T08:25:48.727Z,13.40
2023-04-18T08:28:16.175Z,12.10
2023-04-18T08:30:44.130Z,12.27
2023-04-18T08:33:11.225Z,13.68
2023-04-18T08:35:38.313Z,11.48
2023-04-18T08:38:05.525Z,11.95
2023-04-18T08:40:32.745Z,11.82
2023-04-18T08:43:05.070Z,13.52
2023-04-18T08:45:33.259Z,11.35
2023-04-18T08:48:01.605Z,11.82
2023-04-18T08:50:29.016Z,11.70
2023-04-18T08:52:56.433Z,12.40
2023-04-18T08:55:23.806Z,13.10
2023-04-18T08:57:54.183Z,11.23
2023-04-18T09:00:22.657Z,10.55
2023-04-18T09:02:55.020Z,10.70
2023-04-18T09:05:22.602Z,9.70
2023-04-18T09:07:51.621Z,11.23
2023-04-18T09:10:29.934Z,12.35
2023-04-18T09:12:58.329Z,10.60
2023-04-18T09:15:29.240Z,10.70
2023-04-18T09:17:58.318Z,10.77
2023-04-18T09:20:30.744Z,11.10
2023-04-18T09:22:57.995Z,11.20
2023-04-18T09:25:30.641Z,10.52
2023-04-18T09:28:00.674Z,11.38
2023-04-18T09:30:37.844Z,10.98
2023-04-18T09:33:07.781Z,11.02
2023-04-18T09:35:35.160Z,10.93
2023-04-18T09:38:02.162Z,10.50
2023-04-18T09:40:29.528Z,10.55
2023-04-18T09:42:56.636Z,11.07
2023-04-18T09:45:24.294Z,11.23
2023-04-18T09:47:52.560Z,11.48
2023-04-18T09:50:20.775Z,10.95
2023-04-18T09:52:48.794Z,12.02
2023-04-18T09:55:17.560Z,13.35
2023-04-18T09:57:48.823Z,11.27
2023-04-18T10:00:26.681Z,10.50
2023-04-18T10:02:53.977Z,12.65
2023-04-18T10:05:24.019Z,11.95
2023-04-18T10:07:51.709Z,10.77
2023-04-18T10:10:19.045Z,11.75
2023-04-18T10:12:48.637Z,11.73
2023-04-18T10:15:17.181Z,12.25
2023-04-18T10:18:05.185Z,11.52
2023-04-18T10:20:34.681Z,12.30
2023-04-18T10:23:22.190Z,12.63
2023-04-18T10:25:49.675Z,12.35
2023-04-18T10:28:17.339Z,12.73
2023-04-18T10:30:45.484Z,11.15
2023-04-18T10:33:31.098Z,12.18
2023-04-18T10:36:00.596Z,10.00
2023-04-18T10:38:28.181Z,13.63
2023-04-18T10:41:14.997Z,14.23
2023-04-18T10:44:01.166Z,12.85
2023-04-18T10:46:32.540Z,12.93
2023-04-18T10:49:15.357Z,12.50
2023-04-18T10:51:46.967Z,11.30
2023-04-18T10:54:20.732Z,12.13
2023-04-18T10:56:54.889Z,12.10
2023-04-18T10:59:26.823Z,12.68
2023-04-18T11:01:59.960Z,12.10
2023-04-18T11:04:27.241Z,10.70
2023-04-18T11:07:00.293Z,12.18
2023-04-18T11:09:27.376Z,10.43
2023-04-18T11:12:08.885Z,11.00
2023-04-18T11:14:49.778Z,11.50
2023-04-18T11:17:17.899Z,12.23
2023-04-18T11:19:45.127Z,11.05
2023-04-18T11:22:13.145Z,11.85
2023-04-18T11:24:40.760Z,12.50
2023-04-18T11:27:11.904Z,11.85
2023-04-18T11:29:39.713Z,12.18
2023-04-18T11:32:08.414Z,12.95
2023-04-18T11:34:36.091Z,11.68
2023-04-18T11:37:07.666Z,12.23
2023-04-18T11:39:36.385Z,14.07
2023-04-18T11:42:03.797Z,14.07
2023-04-18T11:44:30.969Z,14.52
2023-04-18T11:46:58.301Z,13.23
2023-04-18T11:49:29.929Z,11.68
2023-04-18T11:51:57.164Z,14.30
2023-04-18T11:54:41.241Z,15.98
2023-04-18T11:57:29.385Z,16.58
2023-04-18T11:59:58.175Z,15.23
2023-04-18T12:02:38.589Z,14.18
2023-04-18T12:05:06.596Z,14.20
2023-04-18T12:07:47.849Z,14.85
2023-04-18T12:10:20.996Z,15.57
2023-04-18T12:12:57.514Z,13.07
2023-04-18T12:15:27.287Z,14.40
2023-04-18T12:18:05.522Z,13.32
2023-04-18T12:20:36.848Z,13.90
2023-04-18T12:23:04.638Z,14.00
2023-04-18T12:25:32.166Z,14.63
2023-04-18T12:28:00.966Z,16.10
2023-04-18T12:30:29.945Z,14.85
2023-04-18T12:33:01.973Z,16.80
2023-04-18T12:35:30.202Z,15.48
2023-04-18T12:37:58.385Z,14.07
2023-04-18T12:40:26.620Z,14.38
2023-04-18T12:42:54.755Z,15.50
2023-04-18T12:45:22.802Z,14.45
2023-04-18T12:47:52.236Z,12.23
2023-04-18T12:50:21.706Z,14.85
2023-04-18T12:52:49.149Z,18.02
2023-04-18T12:55:16.395Z,17.23
2023-04-18T12:57:43.691Z,17.33
2023-04-18T13:00:11.577Z,16.98
2023-04-18T13:02:40.240Z,16.17
2023-04-18T13:05:08.818Z,15.90
2023-04-18T13:07:40.631Z,16.42
2023-04-18T13:10:12.059Z,17.15
2023-04-18T13:12:39.863Z,17.15
2023-04-18T13:15:07.574Z,17.67
2023-04-18T13:17:36.818Z,17.75
2023-04-18T13:20:06.787Z,16.63
2023-04-18T13:22:34.385Z,17.27
2023-04-18T13:25:01.748Z,21.70
2023-04-18T13:27:29.067Z,17.90
2023-04-18T13:29:57.284Z,20.05
2023-04-18T13:32:24.869Z,19.15
2023-04-18T13:34:52.099Z,18.17
2023-04-18T13:37:19.509Z,22.33
2023-04-18T13:39:46.722Z,15.57
2023-04-18T13:42:15.910Z,19.73
2023-04-18T13:44:43.556Z,19.10
2023-04-18T13:47:10.865Z,17.75
2023-04-18T13:49:37.973Z,18.40
2023-04-18T13:52:05.532Z,17.35
2023-04-18T13:54:33.176Z,18.83
2023-04-18T13:57:04.488Z,19.23
2023-04-18T13:59:32.421Z,18.92
2023-04-18T14:01:59.820Z,17.38
2023-04-18T14:04:27.415Z,17.73
2023-04-18T14:06:54.843Z,17.60
2023-04-18T14:09:22.294Z,17.15
2023-04-18T14:11:51.147Z,15.90
2023-04-18T14:14:18.517Z,16.98
2023-04-18T14:16:46.128Z,17.88
2023-04-18T14:19:13.798Z,13.68
2023-04-18T14:21:41.397Z,16.77
2023-04-18T14:24:08.664Z,16.85
2023-04-18T14:26:35.695Z,17.33
2023-04-18T14:29:04.343Z,18.88
2023-04-18T14:31:31.573Z,16.02
2023-04-18T14:33:58.820Z,16.83
2023-04-18T14:36:27.169Z,19.13
2023-04-18T14:38:55.133Z,16.33
2023-04-18T14:41:22.453Z,16.38
2023-04-18T14:43:49.641Z,16.10
2023-04-18T14:46:17.172Z,17.45
2023-04-18T14:48:47.420Z,16.70
2023-04-18T14:51:17.577Z,16.52
2023-04-18T14:53:46.171Z,16.67
2023-04-18T14:56:14.701Z,15.43
2023-04-18T14:58:41.861Z,15.80
2023-04-18T15:01:09.015Z,15.50
2023-04-18T15:03:36.384Z,17.85
2023-04-18T15:06:03.761Z,18.10
2023-04-18T15:08:32.862Z,17.10
2023-04-18T15:11:01.096Z,15.77
2023-04-18T15:13:28.341Z,17.25
2023-04-18T15:15:56.943Z,16.75
2023-04-18T15:18:24.184Z,18.73
2023-04-18T15:20:51.828Z,16.08
2023-04-18T15:23:19.114Z,17.08
2023-04-18T15:25:46.569Z,16.27
2023-04-18T15:28:14.130Z,15.70
2023-04-18T15:30:41.134Z,16.63
2023-04-18T15:33:08.573Z,17.27
2023-04-18T15:35:36.121Z,15.63
2023-04-18T15:38:03.618Z,13.70
2023-04-18T15:40:32.960Z,17.50
2023-04-18T15:43:02.165Z,16.10
2023-04-18T15:45:29.577Z,15.18
2023-04-18T15:47:56.876Z,15.20
2023-04-18T15:50:24.511Z,16.33
2023-04-18T15:52:53.118Z,16.25
2023-04-18T15:55:52.074Z,16.10
2023-04-18T16:01:18.868Z,18.13
2023-04-18T16:04:00.490Z,15.02
2023-04-18T16:06:37.415Z,15.40
2023-04-18T16:09:06.568Z,17.15
2023-04-18T16:11:33.670Z,15.18
2023-04-18T16:14:00.821Z,17.05
2023-04-18T16:16:30.653Z,13.57
2023-04-18T16:19:08.155Z,15.30
2023-04-18T16:21:35.501Z,16.20
2023-04-18T16:24:02.670Z,14.73
2023-04-18T16:26:31.476Z,14.80
2023-04-18T16:28:58.637Z,14.55
2023-04-18T16:31:25.893Z,15.65
2023-04-18T16:33:53.776Z,12.75
2023-04-18T16:36:21.023Z,14.40
2023-04-18T16:38:48.219Z,16.85
2023-04-18T16:41:15.245Z,14.85
2023-04-18T16:43:42.600Z,14.95
2023-04-18T16:46:11.814Z,15.43
2023-04-18T16:48:39.114Z,14.75
2023-04-18T16:51:06.680Z,14.82
2023-04-18T16:53:34.227Z,12.75
2023-04-18T16:56:03.150Z,14.60
2023-04-18T16:58:30.608Z,15.27
2023-04-18T17:00:57.925Z,16.05
2023-04-18T17:03:25.368Z,15.27
2023-04-18T17:05:53.008Z,16.02
2023-04-18T17:08:20.216Z,14.40
2023-04-18T17:10:51.719Z,14.50
2023-04-18T17:13:19.312Z,14.93
2023-04-18T17:15:46.880Z,15.50
2023-04-18T17:18:14.176Z,14.55
2023-04-18T17:20:41.332Z,13.90
2023-04-18T17:23:08.754Z,14.32
2023-04-18T17:25:36.534Z,13.32
2023-04-18T17:28:03.859Z,11.57
2023-04-18T17:30:31.372Z,14.82
2023-04-18T17:32:58.821Z,14.40
2023-04-18T17:35:26.203Z,15.07
2023-04-18T17:37:53.483Z,15.07
2023-04-18T17:40:20.597Z,13.93
2023-04-18T17:42:50.386Z,14.75
2023-04-18T17:45:20.572Z,14.75
2023-04-18T17:47:49.653Z,14.77
2023-04-18T17:50:17.650Z,14.88
2023-04-18T17:52:46.531Z,17.23
2023-04-18T17:55:14.101Z,14.20
2023-04-18T17:57:41.623Z,13.88
2023-04-18T18:00:13.564Z,16.17
2023-04-18T18:02:42.515Z,15.90
2023-04-18T18:05:13.694Z,14.40
2023-04-18T18:07:43.145Z,15.10
2023-04-18T18:10:11.546Z,15.18
2023-04-18T18:12:39.863Z,16.48
2023-04-18T18:15:08.591Z,15.05
2023-04-18T18:17:36.581Z,16.05
2023-04-18T18:20:05.423Z,15.18
2023-04-18T18:22:32.628Z,17.85
2023-04-18T18:25:12.018Z,16.13
2023-04-18T18:27:39.408Z,14.82
2023-04-18T18:30:06.958Z,16.13
2023-04-18T18:32:34.192Z,14.30
2023-04-18T18:35:01.981Z,14.95
2023-04-18T18:37:29.162Z,16.52
2023-04-18T18:39:56.487Z,14.88
2023-04-18T18:42:23.855Z,16.10
2023-04-18T18:44:51.000Z,14.85
2023-04-18T18:47:19.840Z,14.50
2023-04-18T18:49:48.788Z,14.18
2023-04-18T18:52:16.074Z,15.93
2023-04-18T18:54:43.318Z,17.48
2023-04-18T18:57:10.606Z,16.40
2023-04-18T18:59:37.936Z,14.52
2023-04-18T19:02:05.944Z,14.65
2023-04-18T19:04:33.528Z,15.05
2023-04-18T19:07:00.723Z,16.70
2023-04-18T19:09:28.003Z,17.60
2023-04-18T19:11:55.325Z,16.13
2023-04-18T19:14:23.802Z,17.02
2023-04-18T19:16:51.250Z,16.75
2023-04-18T19:19:19.480Z,15.88
2023-04-18T19:21:46.711Z,15.15
2023-04-18T19:24:14.045Z,18.98
2023-04-18T19:26:41.795Z,16.15
2023-04-18T19:29:10.015Z,16.88
2023-04-18T19:31:37.647Z,16.83
2023-04-18T19:34:04.837Z,14.98
2023-04-18T19:36:32.150Z,13.15
2023-04-18T19:38:59.446Z,16.48
2023-04-18T19:41:26.586Z,13.82
2023-04-18T19:43:53.842Z,14.80
2023-04-18T19:46:21.258Z,16.60
2023-04-18T19:48:48.524Z,17.00
2023-04-18T19:51:15.751Z,14.52
2023-04-18T19:53:42.874Z,15.43
2023-04-18T19:56:11.453Z,15.05
2023-04-18T19:58:44.709Z,14.07
2023-04-18T20:01:37.834Z,16.35
2023-04-18T20:04:05.711Z,14.63
2023-04-18T20:06:33.096Z,13.18
2023-04-18T20:09:00.832Z,13.13
2023-04-18T20:11:28.165Z,13.73
2023-04-18T20:13:56.534Z,13.60
2023-04-18T20:16:23.733Z,12.10
2023-04-18T20:18:51.932Z,12.90
2023-04-18T20:21:20.939Z,13.52
2023-04-18T20:23:48.095Z,12.95
2023-04-18T20:26:15.246Z,14.60
2023-04-18T20:28:42.665Z,13.43
2023-04-18T20:31:12.267Z,11.63
2023-04-18T20:33:39.576Z,12.88
2023-04-18T20:36:07.472Z,12.05
2023-04-18T20:38:34.804Z,11.73
2023-04-18T20:41:02.006Z,13.35
2023-04-18T20:43:29.482Z,12.57
2023-04-18T20:45:57.930Z,13.93
2023-04-18T20:48:26.474Z,16.13
2023-04-18T20:50:54.040Z,11.45
2023-04-18T20:53:21.533Z,13.07
2023-04-18T20:55:49.183Z,14.32
2023-04-18T20:58:16.788Z,12.35
2023-04-18T21:00:44.988Z,14.27
2023-04-18T21:03:15.845Z,14.68
2023-04-18T21:05:44.259Z,9.45
2023-04-18T21:08:11.718Z,13.30
2023-04-18T21:10:39.610Z,11.20
2023-04-18T21:13:06.785Z,12.88
2023-04-18T21:15:35.195Z,13.95
2023-04-18T21:18:02.567Z,12.85
2023-04-18T21:20:29.931Z,12.38
2023-04-18T21:22:57.083Z,15.27
2023-04-18T21:25:24.331Z,13.50
2023-04-18T21:27:51.855Z,14.32
2023-04-18T21:30:19.230Z,14.30
2023-04-18T21:32:51.641Z,12.90
2023-04-18T21:35:24.805Z,13.30
2023-04-18T21:37:53.682Z,14.27
2023-04-18T21:40:21.079Z,15.00
2023-04-18T21:42:50.979Z,13.68
2023-04-18T21:45:18.340Z,14.35
2023-04-18T21:47:45.699Z,13.15
2023-04-18T21:50:13.183Z,17.85
2023-04-18T21:52:40.613Z,14.75
2023-04-18T21:55:08.046Z,13.70
2023-04-18T21:57:35.866Z,13.30
2023-04-18T22:00:03.230Z,12.57
2023-04-18T22:02:36.166Z,13.13
2023-04-18T22:05:03.548Z,12.38
2023-04-18T22:07:31.145Z,12.98
2023-04-18T22:10:00.096Z,14.00
2023-04-18T22:12:27.319Z,13.70
2023-04-18T22:14:54.887Z,12.52
2023-04-18T22:17:23.318Z,12.52
2023-04-18T22:19:50.759Z,12.70
2023-04-18T22:22:18.126Z,12.50
2023-04-18T22:24:47.572Z,15.48
2023-04-18T22:27:15.330Z,15.02
2023-04-18T22:29:42.675Z,12.80
2023-04-18T22:32:09.894Z,14.23
2023-04-18T22:34:37.157Z,14.60
2023-04-18T22:37:04.346Z,11.73
2023-04-18T22:39:31.566Z,12.88
2023-04-18T22:41:58.739Z,10.82
2023-04-18T22:44:25.904Z,12.20
2023-04-18T22:46:54.822Z,13.43
2023-04-18T22:49:22.283Z,12.82
2023-04-18T22:51:49.704Z,13.48
2023-04-18T22:54:17.039Z,12.05
2023-04-18T22:56:44.405Z,12.95
2023-04-18T22:59:11.591Z,13.10
2023-04-18T23:01:38.939Z,10.82
2023-04-18T23:04:06.463Z,12.90
2023-04-18T23:06:34.025Z,12.45
2023-04-18T23:09:01.127Z,12.73
2023-04-18T23:11:28.552Z,13.65
2023-04-18T23:13:55.686Z,12.95
2023-04-18T23:16:23.216Z,12.65
2023-04-18T23:18:50.577Z,13.05
2023-04-18T23:21:17.777Z,13.70
2023-04-18T23:23:44.938Z,13.15
2023-04-18T23:26:14.268Z,13.13
2023-04-18T23:28:44.316Z,15.35
2023-04-18T23:31:11.685Z,12.75
2023-04-18T23:33:38.863Z,14.43
2023-04-18T23:36:06.545Z,12.18
2023-04-18T23:38:33.264Z,16.08
2023-04-18T23:41:00.449Z,13.48
2023-04-18T23:43:27.847Z,12.55
2023-04-18T23:45:55.197Z,12.20
2023-04-18T23:48:22.531Z,16.42
2023-04-18T23:50:50.646Z,13.32
2023-04-18T23:53:17.720Z,14.45
2023-04-18T23:55:45.309Z,14.98
2023-04-18T23:58:12.759Z,13.20
